• Join FlightAware (Why Join?)
  • Login
  • US Flag 
07:29AM EDT


 

Airport Tracker/Info


-or-


 

Live Flight TrackerFlight Track Log ✈ SKW5631 ✈ 08-Dec-2013 ✈ KSFO - KBUR

Flight Track Log - Related Links

Times and Time Zones

All times are in EST time to prevent confusion due to time zone crossing. See the SKW5631 flight status page for this flight to view local times or setup timezone preferences in your user account.

Time Position Orientation Groundspeed Altitude Reporting Facility
EST Latitude Longitude Course Direction KTS MPH feet Rate Location/Type
10:34PM 37.6833 -122.3667 323° Northwest 201 231 4,300  Level Northern Cal TRACON
10:35PM 37.7153 -122.3969 323° Northwest 232 267 5,900 2,580 Climbing Oakland Center
10:36PM 37.6664 -122.4553 223° Southwest 284 327 8,500 2,520 Climbing Oakland Center
10:37PM 37.5836 -122.4522 178° South 297 342 11,100 2,160 Climbing Oakland Center
10:38PM 37.5069 -122.4089 156° South 321 369 13,000 1,920 Climbing Oakland Center
10:39PM 37.4408 -122.3342 138° Southeast 322 371 15,100 2,100 Climbing Oakland Center
10:40PM 37.3678 -122.2547 139° Southeast 343 395 17,300 1,860 Climbing Oakland Center
10:41PM 37.2939 -122.1744 139° Southeast 351 404 19,000 1,800 Climbing Oakland Center
10:42PM 37.2178 -122.0939 140° Southeast 357 411 21,000 1,680 Climbing Oakland Center
10:43PM 37.1417 -122.0106 139° Southeast 363 418 22,500 1,320 Climbing Oakland Center
10:44PM 37.0617 -121.9236 139° Southeast 378 435 23,700 1,080 Climbing Oakland Center
10:45PM 36.9781 -121.8350 140° Southeast 394 453 24,700 1,080 Climbing Oakland Center
10:46PM 36.8733 -121.7269 140° Southeast 407 468 25,900 1,080 Climbing Oakland Center
10:47PM 36.7894 -121.6364 139° Southeast 412 474 26,900 960 Climbing Oakland Center
10:48PM 36.7036 -121.5439 139° Southeast 410 472 27,900 960 Climbing Oakland Center
10:49PM 36.6153 -121.4508 140° Southeast 415 478 28,900 480 Climbing Oakland Center
10:50PM 36.5267 -121.3567 139° Southeast 423 487 29,000  Climbing Oakland Center
10:51PM 36.4336 -121.2575 139° Southeast 443 510 29,000  Level Oakland Center
10:52PM 36.3397 -121.1583 140° Southeast 446 513 29,000  Level Oakland Center
10:53PM 36.2447 -121.0553 139° Southeast 452 520 29,000  Level Oakland Center
10:54PM 36.1494 -120.9550 140° Southeast 452 520 29,000  Level Oakland Center
10:55PM 36.0564 -120.8569 140° Southeast 445 512 29,000  Level Oakland Center
10:56PM 35.9450 -120.7403 140° Southeast 439 505 29,000  Level Oakland Center
10:57PM 35.8533 -120.6453 140° Southeast 434 499 29,000  Level Oakland Center
10:58PM 35.7608 -120.5489 140° Southeast 434 499 29,000  Level Oakland Center
10:59PM 35.6692 -120.4542 140° Southeast 431 496 29,000  Level Oakland Center
11:00PM 35.5756 -120.3592 140° Southeast 433 498 29,000  Level Oakland Center
11:01PM 35.4828 -120.2628 140° Southeast 430 495 29,000  Level Oakland Center
11:02PM 35.3878 -120.1647 140° Southeast 432 497 29,000  Level Oakland Center
11:03PM 35.2939 -120.0689 140° Southeast 435 501 29,000  Level Oakland Center
11:04PM 35.2000 -119.9736 140° Southeast 437 503 29,000 -480 Level Oakland Center
11:05PM 35.1069 -119.8783 140° Southeast 436 502 28,100 -1,620 Descending Oakland Center
11:06PM 35.0244 -119.7731 134° Southeast 431 496 25,800 -2,340 Descending Oakland Center
11:07PM 34.9469 -119.6675 132° Southeast 422 486 23,400 -2,400 Descending Oakland Center
11:08PM 34.8708 -119.5642 132° Southeast 415 478 21,000 -2,400 Descending Oakland Center
11:09PM 34.7967 -119.4658 133° Southeast 401 461 18,600 -2,220 Descending Oakland Center
11:10PM 34.7244 -119.3694 132° Southeast 391 450 16,500 -2,220 Descending Oakland Center
11:11PM 34.6544 -119.2758 132° Southeast 380 437 14,100 -2,220 Descending Oakland Center
11:13PM 34.5572 -119.1497 133° Southeast 341 392 11,400 -1,380 Descending Los Angeles Center
11:14PM 34.4978 -119.0703 132° Southeast 320 368 11,000 -360 Descending Los Angeles Center
11:15PM 34.4411 -118.9939 132° Southeast 307 353 10,700 -840 Descending Los Angeles Center
11:16PM 34.3856 -118.9192 132° Southeast 300 345 9,300 -1,500 Descending Los Angeles Center
11:17PM 34.3211 -118.8572 142° Southeast 296 341 7,700 -1,560 Descending Los Angeles Center
11:18PM 34.2503 -118.8108 152° Southeast 288 331 6,100 -1,560 Descending Los Angeles Center
11:19PM 34.2078 -118.7444 128° Southeast 264 304 4,600 -1,320 Descending Los Angeles Center
11:20PM 34.2019 -118.6647 95° East 247 284 3,500 -780 Descending Los Angeles Center
11:21PM 34.2000 -118.5667 91° East 199 229 3,000 -300 Descending Southern California TRACON
11:23PM 34.1997 -118.4694 90° East 168 193 2,600 -420 Descending Los Angeles Center
11:24PM 34.1992 -118.4250 91° East 148 170 1,800 -660 Descending Los Angeles Center
11:25PM 34.1978 -118.3733 92° East 142 163 1,300 -540 Descending Los Angeles Center